Time;durP1;ratioP1;P1;durP2;ratioP2;P2;SDS_P1;SDS_P2;PMS_P1;PMS_P2;Temp;Humidity;BMP_temperature;BMP_pressure;BME280_temperature;BME280_humidity;BME280_pressure;Samples;Min_cycle;Max_cycle;Signal;HPM_P1;HPM_P2
2022/03/15 00:00:11;;;;;;;4.57;4.00;;;7.30;68.00;;;;;;926660;149;27352;-79
2022/03/15 00:02:38;;;;;;;5.13;4.63;;;7.30;68.00;;;;;;926907;150;27338;-79
2022/03/15 00:05:05;;;;;;;5.77;4.37;;;7.30;68.10;;;;;;933630;150;27344;-79
2022/03/15 00:07:31;;;;;;;6.37;4.67;;;7.30;68.10;;;;;;931382;149;27391;-79
2022/03/15 00:10:00;;;;;;;6.63;4.27;;;7.30;68.40;;;;;;926693;149;27448;-79
2022/03/15 00:12:24;;;;;;;5.10;4.00;;;7.30;68.40;;;;;;933142;150;27361;-80
2022/03/15 00:14:52;;;;;;;7.70;4.57;;;7.30;68.50;;;;;;919568;150;27395;-80
2022/03/15 00:17:18;;;;;;;4.90;4.30;;;7.20;68.30;;;;;;939145;148;27349;-79
2022/03/15 00:19:44;;;;;;;6.47;4.33;;;7.20;68.50;;;;;;933773;148;27303;-79
2022/03/15 00:22:11;;;;;;;5.47;4.93;;;7.20;68.40;;;;;;936574;148;27325;-79
2022/03/15 00:24:37;;;;;;;4.30;3.90;;;7.20;68.40;;;;;;938558;148;27386;-79
2022/03/15 00:27:04;;;;;;;6.10;4.53;;;7.20;68.60;;;;;;931669;148;27370;-79
2022/03/15 00:29:31;;;;;;;6.37;5.10;;;7.20;68.60;;;;;;931855;148;27339;-79
2022/03/15 00:31:57;;;;;;;7.03;5.10;;;7.20;68.90;;;;;;922415;150;27324;-79
2022/03/15 00:34:24;;;;;;;6.37;4.47;;;7.20;68.70;;;;;;928638;149;27357;-79
2022/03/15 00:36:50;;;;;;;5.00;4.00;;;7.20;68.80;;;;;;932080;149;27459;-78
2022/03/15 00:39:17;;;;;;;6.47;4.03;;;7.20;68.90;;;;;;931350;149;27366;-79
2022/03/15 00:41:43;;;;;;;6.43;4.33;;;7.20;69.00;;;;;;934781;150;27322;-79
2022/03/15 00:44:10;;;;;;;4.53;4.07;;;7.20;69.00;;;;;;923517;150;27377;-79
2022/03/15 00:46:37;;;;;;;4.97;4.43;;;7.20;69.10;;;;;;936256;148;27807;-79
2022/03/15 00:49:03;;;;;;;5.50;4.50;;;7.10;69.20;;;;;;929984;148;27363;-80
2022/03/15 00:51:31;;;;;;;5.07;4.30;;;7.10;69.20;;;;;;931695;148;27367;-79
2022/03/15 00:53:57;;;;;;;5.27;4.33;;;7.10;69.20;;;;;;928720;148;27259;-79
2022/03/15 00:56:23;;;;;;;7.17;4.53;;;7.10;69.20;;;;;;931741;148;27323;-79
2022/03/15 00:58:50;;;;;;;7.10;4.93;;;7.10;69.30;;;;;;931573;148;27789;-79
2022/03/15 01:01:16;;;;;;;5.40;4.90;;;7.10;69.40;;;;;;932045;148;27349;-80
2022/03/15 01:07:05;;;;;;;5.63;4.33;;;7.10;69.60;;;;;;931648;148;27383;-80
2022/03/15 01:09:32;;;;;;;6.53;4.83;;;7.10;69.30;;;;;;933932;148;27493;-81
2022/03/15 01:11:59;;;;;;;6.83;5.10;;;7.00;69.30;;;;;;934481;148;27348;-80
2022/03/15 01:14:27;;;;;;;5.07;4.20;;;7.00;69.60;;;;;;933628;148;27269;-81
2022/03/15 01:16:53;;;;;;;6.37;5.23;;;7.00;69.60;;;;;;933557;148;27319;-80
2022/03/15 01:19:19;;;;;;;5.43;4.37;;;7.00;69.60;;;;;;929633;148;27421;-80
2022/03/15 01:21:45;;;;;;;5.20;4.33;;;7.00;69.70;;;;;;931561;148;27438;-81
2022/03/15 01:24:11;;;;;;;5.00;4.50;;;7.00;69.80;;;;;;930207;148;27409;-81
2022/03/15 01:26:38;;;;;;;5.13;4.63;;;7.00;69.50;;;;;;931119;148;27297;-81
2022/03/15 01:29:04;;;;;;;4.20;3.80;;;7.00;69.60;;;;;;932449;148;27470;-81
2022/03/15 01:31:31;;;;;;;4.23;3.83;;;7.00;70.00;;;;;;932150;148;27792;-80
2022/03/15 01:33:58;;;;;;;7.23;4.27;;;7.00;70.00;;;;;;929876;148;27432;-81
2022/03/15 01:36:24;;;;;;;5.90;4.40;;;7.00;70.10;;;;;;930884;148;27361;-81
2022/03/15 01:38:52;;;;;;;5.33;4.10;;;7.00;70.30;;;;;;930699;148;27331;-80
2022/03/15 01:41:17;;;;;;;3.80;3.50;;;7.10;70.20;;;;;;932799;148;27263;-81
2022/03/15 01:43:46;;;;;;;4.60;3.90;;;7.10;70.20;;;;;;932256;148;27560;-80
2022/03/15 01:46:10;;;;;;;5.57;4.20;;;7.10;70.10;;;;;;931728;148;27350;-81
2022/03/15 01:48:37;;;;;;;5.27;3.97;;;7.00;70.80;;;;;;920041;150;28481;-81
2022/03/15 01:51:04;;;;;;;4.40;3.93;;;7.00;70.10;;;;;;914565;151;27335;-80
2022/03/15 01:53:30;;;;;;;4.30;3.93;;;7.00;70.10;;;;;;932711;148;27223;-80
2022/03/15 01:55:57;;;;;;;5.93;3.90;;;7.00;70.20;;;;;;933883;148;27481;-80
2022/03/15 01:58:24;;;;;;;5.53;4.03;;;7.00;70.20;;;;;;936786;148;27371;-81
2022/03/15 02:00:50;;;;;;;4.87;4.37;;;7.00;70.30;;;;;;933416;148;27339;-80
2022/03/15 02:03:17;;;;;;;4.03;3.70;;;7.00;70.30;;;;;;932422;148;27299;-80
2022/03/15 02:05:43;;;;;;;4.60;3.97;;;7.00;70.40;;;;;;930233;148;27413;-80
2022/03/15 02:08:10;;;;;;;4.33;3.87;;;7.00;69.60;;;;;;931158;148;27726;-80
2022/03/15 02:10:36;;;;;;;6.87;4.03;;;7.00;70.40;;;;;;929607;148;27451;-80
2022/03/15 02:13:03;;;;;;;4.87;4.03;;;7.00;70.50;;;;;;932027;148;27328;-80
2022/03/15 02:15:29;;;;;;;5.40;3.93;;;7.00;70.60;;;;;;931788;148;27350;-80
2022/03/15 02:17:56;;;;;;;5.63;4.43;;;7.00;70.60;;;;;;929182;152;27310;-80
2022/03/15 02:20:23;;;;;;;4.10;3.67;;;7.00;70.70;;;;;;931971;148;27291;-80
2022/03/15 02:22:49;;;;;;;4.77;3.50;;;7.00;70.60;;;;;;932008;148;27841;-81
2022/03/15 02:25:16;;;;;;;4.47;3.80;;;7.00;70.60;;;;;;929070;148;27371;-80
2022/03/15 02:27:42;;;;;;;5.17;4.20;;;7.00;70.60;;;;;;931860;148;27372;-80
2022/03/15 02:30:09;;;;;;;4.63;4.20;;;7.00;70.70;;;;;;930541;148;27339;-80
2022/03/15 02:32:36;;;;;;;6.07;4.20;;;7.00;70.80;;;;;;931220;148;27351;-80
2022/03/15 02:35:02;;;;;;;5.10;4.60;;;7.00;70.70;;;;;;930213;148;27378;-80
2022/03/15 02:37:29;;;;;;;4.17;3.77;;;7.00;70.70;;;;;;932434;148;27329;-81
2022/03/15 02:39:55;;;;;;;5.27;4.13;;;7.00;70.90;;;;;;938860;148;27278;-80
2022/03/15 02:42:22;;;;;;;4.83;3.93;;;7.00;70.80;;;;;;935457;150;27961;-80
2022/03/15 02:44:49;;;;;;;4.63;4.20;;;6.90;70.70;;;;;;934161;150;27328;-80
2022/03/15 02:47:15;;;;;;;4.93;4.03;;;6.90;70.70;;;;;;928450;149;27447;-80
2022/03/15 02:49:42;;;;;;;5.30;3.87;;;6.90;70.90;;;;;;930327;150;28068;-81
2022/03/15 02:52:09;;;;;;;5.80;3.83;;;6.90;70.90;;;;;;933082;150;27430;-80
2022/03/15 02:54:40;;;;;;;6.03;4.23;;;7.00;71.00;;;;;;933851;150;27884;-80
2022/03/15 02:57:02;;;;;;;5.10;4.30;;;7.00;71.00;;;;;;937208;149;27428;-79
2022/03/15 02:59:28;;;;;;;5.20;4.30;;;7.00;71.00;;;;;;928271;149;27357;-80
2022/03/15 03:01:55;;;;;;;5.50;4.17;;;7.00;71.00;;;;;;924777;149;27405;-80
2022/03/15 03:04:22;;;;;;;4.53;4.00;;;7.00;71.10;;;;;;929616;149;27311;-80
2022/03/15 03:06:49;;;;;;;4.77;4.10;;;7.00;70.90;;;;;;926757;149;27326;-80
2022/03/15 03:09:16;;;;;;;4.87;4.33;;;6.90;71.00;;;;;;927615;149;27476;-80
2022/03/15 03:11:41;;;;;;;7.90;5.23;;;6.90;70.60;;;;;;928559;149;27386;-80
2022/03/15 03:14:12;;;;;;;6.30;5.60;;;6.90;70.70;;;;;;929561;149;27783;-80
2022/03/15 03:16:34;;;;;;;6.33;5.73;;;6.90;71.00;;;;;;928501;149;27393;-80
2022/03/15 03:19:05;;;;;;;6.00;5.40;;;6.90;71.00;;;;;;925624;149;27862;-80
2022/03/15 03:21:28;;;;;;;6.70;5.43;;;6.90;71.00;;;;;;928142;149;27431;-80
2022/03/15 03:23:54;;;;;;;5.40;4.90;;;6.90;71.00;;;;;;925273;149;27386;-80
2022/03/15 03:26:23;;;;;;;5.70;5.10;;;6.90;71.00;;;;;;927283;149;28663;-80
2022/03/15 03:28:50;;;;;;;4.63;4.03;;;6.90;70.90;;;;;;927066;149;27622;-79
2022/03/15 03:31:16;;;;;;;4.90;4.50;;;6.90;71.20;;;;;;929070;149;27335;-79
2022/03/15 03:33:43;;;;;;;4.97;4.17;;;6.90;71.40;;;;;;927608;149;27364;-79
2022/03/15 03:36:10;;;;;;;5.40;4.23;;;6.90;71.10;;;;;;928033;149;27441;-78
2022/03/15 03:38:36;;;;;;;4.93;3.90;;;6.90;70.80;;;;;;927256;149;27412;-78
2022/03/15 03:41:03;;;;;;;4.70;4.30;;;6.90;70.90;;;;;;926472;149;27314;-78
2022/03/15 03:43:31;;;;;;;4.70;3.67;;;6.90;71.00;;;;;;928869;149;27359;-78
2022/03/15 03:45:56;;;;;;;5.97;3.63;;;6.90;71.20;;;;;;927721;149;27358;-78
2022/03/15 03:48:23;;;;;;;3.93;3.10;;;6.90;71.50;;;;;;926687;149;27390;-79
2022/03/15 03:50:50;;;;;;;4.37;3.87;;;6.90;71.60;;;;;;928111;149;28057;-78
2022/03/15 03:53:17;;;;;;;3.90;3.60;;;6.90;71.80;;;;;;926814;149;27338;-79
2022/03/15 03:55:42;;;;;;;4.17;3.50;;;6.90;71.80;;;;;;925431;149;27811;-76
2022/03/15 03:58:09;;;;;;;4.23;3.30;;;6.90;72.00;;;;;;920486;150;27367;-77
2022/03/15 04:00:36;;;;;;;4.47;3.93;;;6.90;72.00;;;;;;921334;150;28111;-75
2022/03/15 04:03:03;;;;;;;3.60;3.30;;;6.90;72.00;;;;;;920916;150;27342;-76
2022/03/15 04:05:35;;;;;;;3.77;3.47;;;6.90;72.10;;;;;;922064;150;27386;-75
2022/03/15 04:07:59;;;;;;;5.00;3.60;;;6.90;72.10;;;;;;919442;150;27366;-79
2022/03/15 04:10:25;;;;;;;4.60;3.50;;;6.90;72.10;;;;;;922183;150;27481;-76
2022/03/15 04:12:51;;;;;;;5.83;3.40;;;6.90;72.10;;;;;;922154;150;27443;-76
2022/03/15 04:15:18;;;;;;;4.40;3.77;;;7.00;72.20;;;;;;920562;150;27475;-75
2022/03/15 04:17:44;;;;;;;4.30;3.87;;;7.00;72.30;;;;;;921267;150;27897;-76
2022/03/15 04:20:11;;;;;;;3.60;3.30;;;7.00;72.30;;;;;;922496;150;27355;-77
2022/03/15 04:22:37;;;;;;;4.67;3.90;;;7.00;72.20;;;;;;921043;150;27457;-76
2022/03/15 04:25:04;;;;;;;3.50;3.20;;;7.00;72.30;;;;;;920744;150;27369;-75
2022/03/15 04:27:31;;;;;;;4.23;3.50;;;7.00;72.30;;;;;;922475;150;27448;-76
2022/03/15 04:29:57;;;;;;;4.40;3.80;;;7.00;72.20;;;;;;921435;150;27440;-77
2022/03/15 04:32:24;;;;;;;4.20;3.80;;;6.90;72.10;;;;;;921859;150;27440;-76
2022/03/15 04:34:50;;;;;;;4.80;3.30;;;6.90;72.10;;;;;;926604;150;27478;-75
2022/03/15 04:37:19;;;;;;;3.80;3.43;;;6.90;72.20;;;;;;921514;150;27394;-75
2022/03/15 04:39:44;;;;;;;4.43;3.67;;;6.90;72.20;;;;;;923401;150;27451;-75
2022/03/15 04:42:11;;;;;;;5.03;4.00;;;6.90;72.30;;;;;;922930;150;27396;-76
2022/03/15 04:44:37;;;;;;;4.60;4.20;;;6.90;72.20;;;;;;922680;150;27295;-79
2022/03/15 04:47:03;;;;;;;4.00;3.63;;;6.90;72.50;;;;;;920480;150;27937;-76
2022/03/15 04:49:31;;;;;;;4.47;3.93;;;6.90;72.60;;;;;;921646;150;28303;-75
2022/03/15 04:51:56;;;;;;;5.33;4.17;;;6.90;72.60;;;;;;924075;150;27364;-75
2022/03/15 04:54:23;;;;;;;7.57;5.10;;;6.90;72.10;;;;;;918763;150;27443;-76
2022/03/15 04:56:50;;;;;;;5.57;4.30;;;6.90;72.50;;;;;;922671;150;27384;-76
2022/03/15 04:59:16;;;;;;;5.03;3.97;;;6.90;71.80;;;;;;943220;148;27392;-75
2022/03/15 05:01:43;;;;;;;4.70;4.20;;;6.90;72.10;;;;;;935453;149;27361;-76
2022/03/15 05:04:09;;;;;;;5.63;4.57;;;6.90;72.20;;;;;;936099;149;27358;-76
2022/03/15 05:06:38;;;;;;;5.00;4.37;;;6.90;72.40;;;;;;936037;149;27459;-77
2022/03/15 05:09:03;;;;;;;6.07;4.17;;;6.80;72.50;;;;;;937480;149;27398;-77
2022/03/15 05:11:29;;;;;;;4.97;4.40;;;6.80;72.50;;;;;;935798;149;27358;-77
2022/03/15 05:13:56;;;;;;;5.80;4.80;;;6.80;72.70;;;;;;935746;149;27460;-75
2022/03/15 05:16:22;;;;;;;5.57;4.93;;;6.80;72.70;;;;;;936009;149;27400;-75
2022/03/15 05:18:51;;;;;;;6.17;4.83;;;6.80;72.30;;;;;;935742;149;27415;-75
2022/03/15 05:21:16;;;;;;;4.67;4.27;;;6.80;72.50;;;;;;934303;149;27299;-79
2022/03/15 05:23:42;;;;;;;5.83;4.63;;;6.80;72.50;;;;;;936627;149;27369;-75
2022/03/15 05:26:09;;;;;;;4.30;3.80;;;6.80;72.80;;;;;;934495;149;27317;-79
2022/03/15 05:28:35;;;;;;;4.83;3.43;;;6.80;72.80;;;;;;934827;149;27336;-75
2022/03/15 05:31:02;;;;;;;4.87;3.37;;;6.80;72.60;;;;;;936481;149;27456;-75
2022/03/15 05:33:28;;;;;;;3.87;3.57;;;6.80;72.80;;;;;;936396;149;27403;-77
2022/03/15 05:35:55;;;;;;;4.10;3.70;;;6.80;72.80;;;;;;935148;149;27431;-75
2022/03/15 05:38:22;;;;;;;6.50;4.13;;;6.80;72.80;;;;;;936124;149;27480;-75
2022/03/15 05:40:48;;;;;;;5.20;4.03;;;6.80;72.90;;;;;;935118;149;27371;-75
2022/03/15 05:43:15;;;;;;;4.40;3.83;;;6.80;73.20;;;;;;937587;149;27417;-75
2022/03/15 05:45:41;;;;;;;4.97;3.73;;;6.80;73.10;;;;;;934249;149;27421;-77
2022/03/15 05:48:08;;;;;;;4.60;3.93;;;6.80;73.10;;;;;;934542;149;27369;-78
2022/03/15 05:50:34;;;;;;;4.30;3.90;;;6.80;73.10;;;;;;935403;149;27401;-75
2022/03/15 05:53:04;;;;;;;10.50;5.57;;;6.80;73.20;;;;;;933387;149;27390;-75
2022/03/15 05:55:30;;;;;;;8.43;4.87;;;6.80;73.10;;;;;;937268;149;27395;-74
2022/03/15 05:57:57;;;;;;;9.20;5.20;;;6.80;73.00;;;;;;932502;149;27379;-78
2022/03/15 06:00:24;;;;;;;6.33;4.67;;;6.80;73.90;;;;;;923070;152;27468;-75
2022/03/15 06:02:50;;;;;;;5.47;4.07;;;6.80;73.20;;;;;;921523;154;27267;-75
2022/03/15 06:05:17;;;;;;;5.80;4.20;;;6.80;73.50;;;;;;922892;154;27268;-75
2022/03/15 06:07:43;;;;;;;5.20;4.70;;;6.80;73.50;;;;;;939648;151;27438;-76
2022/03/15 06:10:10;;;;;;;5.87;4.53;;;6.80;73.60;;;;;;939394;151;27431;-79
2022/03/15 06:12:36;;;;;;;5.27;4.63;;;6.90;73.70;;;;;;919987;152;27378;-75
2022/03/15 06:15:03;;;;;;;4.90;4.43;;;6.90;73.80;;;;;;921282;154;27316;-76
2022/03/15 06:17:32;;;;;;;7.60;6.33;;;6.90;73.70;;;;;;922183;153;27454;-76
2022/03/15 06:19:56;;;;;;;6.37;5.73;;;6.90;73.50;;;;;;920393;153;27350;-75
2022/03/15 06:22:23;;;;;;;5.43;4.93;;;7.00;73.70;;;;;;919080;153;27413;-78
2022/03/15 06:24:49;;;;;;;6.87;6.17;;;7.00;73.90;;;;;;921009;154;27372;-74
2022/03/15 06:27:16;;;;;;;6.13;5.57;;;7.00;74.60;;;;;;935583;152;27313;-75
2022/03/15 06:29:43;;;;;;;7.43;6.03;;;7.10;74.10;;;;;;934236;149;27345;-75
2022/03/15 06:32:09;;;;;;;7.37;5.20;;;7.10;74.00;;;;;;935010;149;27353;-76
2022/03/15 06:34:36;;;;;;;5.60;5.03;;;7.20;74.00;;;;;;936161;151;27297;-78
2022/03/15 06:37:04;;;;;;;5.10;4.60;;;7.20;73.90;;;;;;934625;149;27350;-76
2022/03/15 06:39:29;;;;;;;4.73;4.20;;;7.20;73.70;;;;;;919673;154;28737;-75
2022/03/15 06:41:56;;;;;;;5.87;4.30;;;7.30;73.70;;;;;;934694;151;27398;-74
2022/03/15 06:44:22;;;;;;;6.37;4.40;;;7.30;73.80;;;;;;936198;151;27756;-75
2022/03/15 06:46:49;;;;;;;4.67;4.17;;;7.40;74.10;;;;;;934789;149;27415;-76
2022/03/15 06:49:15;;;;;;;5.93;5.03;;;7.40;73.90;;;;;;920550;154;27357;-75
2022/03/15 06:51:42;;;;;;;4.97;4.43;;;7.50;74.10;;;;;;920140;154;27396;-75
2022/03/15 06:54:08;;;;;;;4.90;4.23;;;7.50;74.10;;;;;;920460;154;27707;-75
2022/03/15 06:56:37;;;;;;;4.20;3.80;;;7.60;74.00;;;;;;921089;152;27320;-75
2022/03/15 06:59:02;;;;;;;4.90;3.70;;;7.60;74.20;;;;;;922368;154;27414;-77
2022/03/15 07:01:28;;;;;;;4.20;3.80;;;7.70;74.20;;;;;;936868;148;27368;-74
2022/03/15 07:03:55;;;;;;;8.07;4.90;;;7.70;74.20;;;;;;941487;148;27462;-75
2022/03/15 07:06:22;;;;;;;7.20;4.73;;;7.80;74.30;;;;;;941361;148;27357;-75
2022/03/15 07:08:48;;;;;;;6.57;5.07;;;7.90;74.40;;;;;;942680;148;27459;-75
2022/03/15 07:11:14;;;;;;;12.70;8.67;;;7.90;74.40;;;;;;942049;148;27371;-76
2022/03/15 07:13:41;;;;;;;15.00;7.67;;;8.00;74.40;;;;;;939113;148;27903;-75
2022/03/15 07:16:08;;;;;;;11.30;7.40;;;8.10;74.40;;;;;;941309;148;27447;-74
2022/03/15 07:18:34;;;;;;;18.87;11.00;;;8.20;75.00;;;;;;942145;148;27400;-74
2022/03/15 07:21:01;;;;;;;17.60;10.33;;;8.20;74.10;;;;;;942186;148;27319;-75
2022/03/15 07:23:27;;;;;;;15.80;9.77;;;8.30;74.10;;;;;;942595;148;27446;-74
2022/03/15 07:25:54;;;;;;;11.30;7.67;;;8.40;74.10;;;;;;941708;148;27380;-75
2022/03/15 07:28:21;;;;;;;6.70;5.57;;;8.50;74.10;;;;;;941049;148;27295;-75
2022/03/15 07:30:47;;;;;;;6.20;5.60;;;8.50;74.00;;;;;;940146;148;28040;-77
2022/03/15 07:33:14;;;;;;;5.37;4.73;;;8.60;74.00;;;;;;941346;148;27334;-75
2022/03/15 07:35:40;;;;;;;6.40;4.87;;;8.60;73.90;;;;;;943720;148;27355;-74
2022/03/15 07:38:07;;;;;;;4.93;4.43;;;8.70;73.80;;;;;;942476;148;27386;-75
2022/03/15 07:40:34;;;;;;;5.53;5.03;;;8.80;73.80;;;;;;941004;148;27413;-74
2022/03/15 07:43:00;;;;;;;6.40;4.57;;;8.90;73.90;;;;;;940656;148;27345;-75
2022/03/15 07:45:27;;;;;;;8.13;5.03;;;9.00;73.80;;;;;;942454;148;27400;-75
2022/03/15 07:47:53;;;;;;;7.63;5.93;;;9.00;73.80;;;;;;941302;148;27426;-78
2022/03/15 07:50:20;;;;;;;6.37;5.30;;;9.10;73.80;;;;;;941625;148;27462;-75
2022/03/15 07:52:47;;;;;;;5.17;4.20;;;9.20;73.90;;;;;;942435;148;27416;-75
2022/03/15 07:55:13;;;;;;;4.80;4.30;;;9.30;73.70;;;;;;940891;148;27325;-74
2022/03/15 07:57:40;;;;;;;4.83;4.20;;;9.40;73.70;;;;;;941911;148;27331;-74
2022/03/15 08:00:06;;;;;;;5.33;4.40;;;9.50;73.70;;;;;;939552;148;27946;-74
2022/03/15 08:02:33;;;;;;;5.63;4.10;;;9.60;73.60;;;;;;935643;149;27381;-77
2022/03/15 08:04:59;;;;;;;5.70;4.73;;;9.80;73.40;;;;;;936754;149;27282;-75
2022/03/15 08:07:26;;;;;;;4.53;4.13;;;9.90;73.10;;;;;;936103;149;27306;-75
2022/03/15 08:09:54;;;;;;;4.27;3.97;;;10.00;72.90;;;;;;935556;149;27434;-75
2022/03/15 08:12:19;;;;;;;5.77;4.10;;;10.10;72.90;;;;;;937837;149;27836;-78
2022/03/15 08:14:47;;;;;;;4.60;4.20;;;10.20;72.90;;;;;;937306;149;27462;-75
2022/03/15 08:17:12;;;;;;;5.80;4.40;;;10.30;72.60;;;;;;935740;149;27629;-75
2022/03/15 08:19:39;;;;;;;5.70;4.63;;;10.40;72.50;;;;;;936105;149;27446;-75
2022/03/15 08:22:06;;;;;;;5.63;5.07;;;10.50;72.50;;;;;;938850;149;27434;-74
2022/03/15 08:24:32;;;;;;;4.60;4.20;;;10.60;72.20;;;;;;936334;149;27282;-76
2022/03/15 08:26:59;;;;;;;4.93;4.43;;;10.70;72.00;;;;;;936662;149;27711;-75
2022/03/15 08:29:26;;;;;;;5.00;4.50;;;10.80;71.90;;;;;;936429;149;27459;-75
2022/03/15 08:31:52;;;;;;;5.13;4.10;;;10.90;71.80;;;;;;937878;149;27369;-74
2022/03/15 08:34:19;;;;;;;6.03;4.77;;;11.00;71.60;;;;;;935491;149;27334;-76
2022/03/15 08:36:46;;;;;;;6.93;4.40;;;11.00;71.40;;;;;;938117;149;27306;-77
2022/03/15 08:39:14;;;;;;;10.03;4.63;;;11.10;71.20;;;;;;936324;149;27414;-78
2022/03/15 08:41:38;;;;;;;6.50;4.40;;;11.20;71.00;;;;;;935832;149;27382;-75
2022/03/15 08:44:05;;;;;;;4.60;4.17;;;11.20;70.90;;;;;;934988;149;27379;-74
2022/03/15 08:46:31;;;;;;;5.87;4.43;;;11.30;70.80;;;;;;936283;149;27338;-75
2022/03/15 08:48:58;;;;;;;5.37;4.87;;;11.40;70.70;;;;;;936562;149;27412;-75
2022/03/15 08:51:25;;;;;;;5.63;4.30;;;11.50;70.60;;;;;;934576;149;27287;-77
2022/03/15 08:53:51;;;;;;;4.77;4.20;;;11.50;70.50;;;;;;938227;149;27850;-75
2022/03/15 08:56:18;;;;;;;4.60;4.20;;;11.60;70.30;;;;;;934118;149;27349;-74
2022/03/15 08:58:44;;;;;;;4.90;4.40;;;11.70;70.30;;;;;;934622;149;27437;-75
2022/03/15 09:01:11;;;;;;;4.43;3.87;;;11.80;70.20;;;;;;925247;149;27414;-74
2022/03/15 09:03:38;;;;;;;5.27;4.30;;;11.90;70.00;;;;;;922570;154;27338;-77
2022/03/15 09:06:05;;;;;;;5.87;4.57;;;12.00;69.80;;;;;;921926;152;27367;-76
2022/03/15 09:08:31;;;;;;;5.77;4.40;;;12.10;69.60;;;;;;923177;151;27955;-75
2022/03/15 09:10:57;;;;;;;5.97;4.23;;;12.20;69.50;;;;;;924200;153;27438;-74
2022/03/15 09:13:24;;;;;;;4.80;4.27;;;12.20;69.30;;;;;;921230;152;27447;-75
2022/03/15 09:15:51;;;;;;;4.43;4.03;;;12.30;69.50;;;;;;922742;154;27390;-75
2022/03/15 09:18:18;;;;;;;4.43;4.03;;;12.50;69.50;;;;;;935107;152;27503;-74
2022/03/15 09:20:44;;;;;;;8.90;4.60;;;12.60;69.50;;;;;;933986;149;27350;-75
2022/03/15 09:23:10;;;;;;;5.90;4.57;;;12.70;69.30;;;;;;920084;154;27345;-76
2022/03/15 09:25:37;;;;;;;4.93;4.43;;;12.90;69.10;;;;;;918339;154;27339;-75
2022/03/15 09:28:04;;;;;;;4.90;4.37;;;13.00;68.80;;;;;;920657;153;27311;-75
2022/03/15 09:30:30;;;;;;;4.70;4.27;;;13.10;68.40;;;;;;936652;149;27446;-75
2022/03/15 09:32:59;;;;;;;4.23;3.93;;;13.20;68.10;;;;;;934598;149;27431;-75
2022/03/15 09:35:26;;;;;;;4.63;4.20;;;13.30;67.80;;;;;;915828;152;27302;-75
2022/03/15 09:37:52;;;;;;;4.57;4.17;;;13.40;67.60;;;;;;915865;155;27323;-76
2022/03/15 09:40:19;;;;;;;5.47;4.33;;;13.40;67.30;;;;;;916023;153;27400;-75
2022/03/15 09:42:46;;;;;;;6.93;5.67;;;13.50;67.20;;;;;;931932;151;27351;-75
2022/03/15 09:45:12;;;;;;;4.67;4.13;;;13.50;66.90;;;;;;936170;151;27324;-75
2022/03/15 09:47:39;;;;;;;6.73;5.53;;;13.60;66.80;;;;;;921822;153;28838;-76
2022/03/15 09:50:06;;;;;;;6.03;5.40;;;13.60;66.70;;;;;;920509;152;27390;-76
2022/03/15 09:52:34;;;;;;;7.20;5.07;;;13.60;66.60;;;;;;935400;149;27355;-75
2022/03/15 09:54:59;;;;;;;5.90;4.73;;;13.60;66.50;;;;;;936095;149;27366;-74
2022/03/15 09:57:25;;;;;;;4.77;4.37;;;13.70;66.60;;;;;;933617;149;27475;-75
2022/03/15 09:59:52;;;;;;;4.60;4.17;;;13.70;66.60;;;;;;935525;149;27325;-75
2022/03/15 10:02:18;;;;;;;5.27;4.43;;;13.80;66.60;;;;;;934968;152;27471;-75
2022/03/15 10:04:45;;;;;;;6.50;4.20;;;13.80;66.40;;;;;;939581;148;27367;-77
2022/03/15 10:07:12;;;;;;;6.37;4.60;;;13.90;66.40;;;;;;938548;148;27461;-75
2022/03/15 10:09:38;;;;;;;6.23;4.87;;;14.00;66.20;;;;;;934340;148;27411;-75
2022/03/15 10:12:05;;;;;;;5.43;4.67;;;14.00;66.80;;;;;;938862;148;27328;-75
2022/03/15 10:14:46;;;;;;;5.43;4.20;;;14.10;65.80;;;;;;937070;148;27272;-77
2022/03/15 10:17:14;;;;;;;5.10;4.23;;;14.10;65.60;;;;;;937317;148;27825;-76
2022/03/15 10:19:39;;;;;;;5.00;4.33;;;14.10;65.50;;;;;;936928;148;27812;-76
2022/03/15 10:22:07;;;;;;;5.43;4.30;;;14.20;65.30;;;;;;936626;148;27428;-75
2022/03/15 10:24:33;;;;;;;5.97;4.50;;;14.20;65.20;;;;;;937278;148;27337;-75
2022/03/15 10:27:02;;;;;;;7.53;4.27;;;14.10;65.00;;;;;;938164;148;27329;-76
2022/03/15 10:29:28;;;;;;;5.50;4.47;;;14.10;65.00;;;;;;936320;149;28035;-75
2022/03/15 10:31:55;;;;;;;3.87;3.43;;;14.10;64.90;;;;;;937109;149;27330;-75
2022/03/15 10:34:21;;;;;;;5.10;4.30;;;14.10;64.80;;;;;;936187;149;27307;-75
2022/03/15 10:36:48;;;;;;;5.00;4.27;;;14.10;64.80;;;;;;934988;149;27397;-75
2022/03/15 10:39:15;;;;;;;6.90;4.57;;;14.10;64.90;;;;;;933951;149;27359;-77
2022/03/15 10:41:52;;;;;;;5.97;4.90;;;14.10;64.90;;;;;;935562;149;27433;-75
2022/03/15 10:44:17;;;;;;;7.43;4.60;;;14.10;64.90;;;;;;935413;149;27391;-75
2022/03/15 10:46:44;;;;;;;6.97;5.10;;;14.00;64.80;;;;;;936283;149;27303;-75
2022/03/15 10:49:11;;;;;;;6.23;5.63;;;14.00;64.90;;;;;;936575;149;27404;-75
2022/03/15 10:51:37;;;;;;;6.33;5.70;;;13.90;64.90;;;;;;934401;149;27385;-77
2022/03/15 10:54:03;;;;;;;7.63;5.73;;;13.90;64.90;;;;;;936625;149;27374;-75
2022/03/15 10:56:30;;;;;;;6.03;4.97;;;13.90;64.90;;;;;;935991;149;27321;-75
2022/03/15 10:59:05;;;;;;;5.93;5.33;;;13.90;65.20;;;;;;936171;149;27446;-76
2022/03/15 11:01:34;;;;;;;10.73;8.13;;;13.80;65.20;;;;;;930334;149;27312;-75
2022/03/15 11:04:01;;;;;;;6.67;5.63;;;13.80;65.40;;;;;;920026;154;27480;-75
2022/03/15 11:06:35;;;;;;;5.40;4.20;;;13.70;65.30;;;;;;920067;152;28428;-75
2022/03/15 11:09:00;;;;;;;5.23;4.10;;;13.60;65.10;;;;;;922152;152;27498;-75
2022/03/15 11:11:27;;;;;;;6.53;4.40;;;13.60;65.20;;;;;;920631;154;27355;-75
2022/03/15 11:14:06;;;;;;;4.63;4.17;;;13.50;65.50;;;;;;923237;154;27330;-76
2022/03/15 11:16:32;;;;;;;5.60;4.67;;;13.40;65.90;;;;;;936930;152;27986;-77
2022/03/15 11:18:59;;;;;;;4.10;3.80;;;13.30;66.00;;;;;;932872;152;27346;-74
2022/03/15 11:21:25;;;;;;;5.37;4.60;;;13.30;66.40;;;;;;925072;152;27423;-75
2022/03/15 11:23:52;;;;;;;7.00;5.77;;;13.20;66.70;;;;;;935786;152;27335;-75
2022/03/15 11:26:19;;;;;;;6.67;6.03;;;13.20;66.80;;;;;;934265;152;27434;-76
2022/03/15 11:28:47;;;;;;;7.70;6.30;;;13.10;66.70;;;;;;936072;149;27321;-78
2022/03/15 11:31:12;;;;;;;6.40;5.80;;;13.00;67.00;;;;;;933257;149;27393;-75
2022/03/15 11:33:39;;;;;;;7.00;6.30;;;13.00;67.40;;;;;;935357;150;27408;-75
2022/03/15 11:36:05;;;;;;;6.37;5.70;;;12.90;67.90;;;;;;921753;154;27373;-74
2022/03/15 11:38:33;;;;;;;7.27;5.97;;;12.80;68.20;;;;;;925851;154;27281;-75
2022/03/15 11:40:58;;;;;;;6.37;5.77;;;12.80;68.50;;;;;;921434;153;27382;-78
2022/03/15 11:43:43;;;;;;;6.60;5.47;;;12.80;68.50;;;;;;920218;152;27451;-75
2022/03/15 11:46:21;;;;;;;5.50;5.00;;;12.80;68.30;;;;;;934571;151;27437;-75
2022/03/15 11:49:24;;;;;;;5.70;4.80;;;12.70;68.40;;;;;;928841;151;27321;-75
2022/03/15 11:52:17;;;;;;;5.83;4.93;;;12.60;68.50;;;;;;920924;154;27490;-75
2022/03/15 11:55:12;;;;;;;7.47;6.33;;;12.60;68.60;;;;;;933508;151;27929;-76
2022/03/15 11:57:51;;;;;;;7.53;5.70;;;12.50;68.60;;;;;;932602;149;27313;-76
2022/03/15 12:00:42;;;;;;;6.93;6.00;;;12.40;68.50;;;;;;915044;154;27372;-76
2022/03/15 12:03:08;;;;;;;7.77;6.60;;;12.30;68.50;;;;;;900737;154;27524;-75
2022/03/15 12:05:45;;;;;;;9.73;6.60;;;12.20;68.90;;;;;;895762;155;27369;-75
2022/03/15 12:08:13;;;;;;;6.87;6.23;;;12.10;69.40;;;;;;894468;155;27405;-75
2022/03/15 12:10:41;;;;;;;7.40;6.70;;;12.00;69.60;;;;;;899597;155;27516;-75
2022/03/15 12:13:09;;;;;;;7.70;6.90;;;11.90;69.70;;;;;;895502;155;27428;-75
2022/03/15 12:15:36;;;;;;;8.37;7.57;;;11.90;70.00;;;;;;894909;155;27976;-76
2022/03/15 12:20:47;;;;;;;10.00;9.10;;;11.80;70.50;;;;;;896397;155;27989;-76
2022/03/15 12:23:17;;;;;;;10.30;8.47;;;11.70;70.80;;;;;;894033;155;27504;-78
2022/03/15 12:25:44;;;;;;;12.30;9.97;;;11.70;71.20;;;;;;896648;155;27447;-76
2022/03/15 12:28:09;;;;;;;10.00;9.07;;;11.70;71.30;;;;;;894914;155;27347;-78
2022/03/15 12:30:36;;;;;;;10.03;8.50;;;11.60;71.50;;;;;;900151;155;27426;-76
2022/03/15 12:33:02;;;;;;;11.37;9.50;;;11.70;71.70;;;;;;912283;151;27308;-77
2022/03/15 12:35:29;;;;;;;8.23;7.43;;;11.60;71.70;;;;;;907876;151;28008;-77
2022/03/15 12:38:08;;;;;;;8.03;7.20;;;11.60;72.10;;;;;;914017;151;27374;-75
2022/03/15 12:40:34;;;;;;;7.60;6.23;;;11.60;71.70;;;;;;909553;151;27326;-75
2022/03/15 12:43:04;;;;;;;7.83;5.87;;;11.60;71.70;;;;;;915582;151;27327;-76
2022/03/15 12:45:30;;;;;;;6.77;5.80;;;11.60;71.60;;;;;;912797;151;27886;-78
2022/03/15 12:48:03;;;;;;;7.27;5.53;;;11.60;71.70;;;;;;910852;152;27459;-75
2022/03/15 12:50:29;;;;;;;7.13;5.27;;;11.50;71.60;;;;;;909921;152;27405;-76
2022/03/15 12:52:59;;;;;;;6.53;5.73;;;11.50;70.80;;;;;;905662;152;27414;-76
2022/03/15 12:55:25;;;;;;;6.13;5.53;;;11.40;71.90;;;;;;903180;153;27344;-76
2022/03/15 12:57:58;;;;;;;5.90;5.30;;;11.40;72.10;;;;;;905742;153;27378;-75